sensor_id;sensor_type;location;lat;lon;timestamp;temperature;humidity
14901;DHT22;7542;49.078;9.194;2023-09-07T00:00:59;27.60;48.90
14901;DHT22;7542;49.078;9.194;2023-09-07T00:02:02;27.60;48.90
14901;DHT22;7542;49.078;9.194;2023-09-07T00:03:06;27.70;49.10
14901;DHT22;7542;49.078;9.194;2023-09-07T00:04:08;27.70;48.90
14901;DHT22;7542;49.078;9.194;2023-09-07T00:05:10;27.70;49.00
14901;DHT22;7542;49.078;9.194;2023-09-07T00:06:12;27.60;49.10
14901;DHT22;7542;49.078;9.194;2023-09-07T00:07:14;27.60;49.10
14901;DHT22;7542;49.078;9.194;2023-09-07T00:08:16;27.60;49.00
14901;DHT22;7542;49.078;9.194;2023-09-07T00:09:18;27.70;49.10
14901;DHT22;7542;49.078;9.194;2023-09-07T00:10:20;27.50;49.10
14901;DHT22;7542;49.078;9.194;2023-09-07T00:11:22;27.60;49.20
14901;DHT22;7542;49.078;9.194;2023-09-07T00:12:24;27.60;49.20
14901;DHT22;7542;49.078;9.194;2023-09-07T00:13:26;27.60;49.20
14901;DHT22;7542;49.078;9.194;2023-09-07T00:14:28;27.60;49.20
14901;DHT22;7542;49.078;9.194;2023-09-07T00:15:36;27.60;49.20
14901;DHT22;7542;49.078;9.194;2023-09-07T00:16:39;27.60;49.20
14901;DHT22;7542;49.078;9.194;2023-09-07T00:17:41;27.60;49.20
14901;DHT22;7542;49.078;9.194;2023-09-07T00:18:43;27.50;49.10
14901;DHT22;7542;49.078;9.194;2023-09-07T00:19:45;27.50;49.20
14901;DHT22;7542;49.078;9.194;2023-09-07T00:20:50;27.50;49.20
14901;DHT22;7542;49.078;9.194;2023-09-07T00:21:52;27.50;49.20
14901;DHT22;7542;49.078;9.194;2023-09-07T00:22:54;27.40;49.20
14901;DHT22;7542;49.078;9.194;2023-09-07T00:23:56;27.40;49.10
14901;DHT22;7542;49.078;9.194;2023-09-07T00:24:58;27.40;49.10
14901;DHT22;7542;49.078;9.194;2023-09-07T00:26:00;27.40;49.10
14901;DHT22;7542;49.078;9.194;2023-09-07T00:27:02;27.40;49.20
14901;DHT22;7542;49.078;9.194;2023-09-07T00:28:07;27.40;49.20
14901;DHT22;7542;49.078;9.194;2023-09-07T00:29:09;27.40;49.20
14901;DHT22;7542;49.078;9.194;2023-09-07T00:30:11;27.40;49.20
14901;DHT22;7542;49.078;9.194;2023-09-07T00:31:13;27.40;49.30
14901;DHT22;7542;49.078;9.194;2023-09-07T00:32:15;27.30;49.20
14901;DHT22;7542;49.078;9.194;2023-09-07T00:33:17;27.30;49.30
14901;DHT22;7542;49.078;9.194;2023-09-07T00:34:19;27.30;49.30
14901;DHT22;7542;49.078;9.194;2023-09-07T00:35:21;27.30;49.30
14901;DHT22;7542;49.078;9.194;2023-09-07T00:36:23;27.30;49.30
14901;DHT22;7542;49.078;9.194;2023-09-07T00:37:25;27.30;49.30
14901;DHT22;7542;49.078;9.194;2023-09-07T00:38:27;27.30;49.30
14901;DHT22;7542;49.078;9.194;2023-09-07T00:39:29;27.30;49.30
14901;DHT22;7542;49.078;9.194;2023-09-07T00:40:31;27.20;49.40
14901;DHT22;7542;49.078;9.194;2023-09-07T00:41:33;27.30;49.40
14901;DHT22;7542;49.078;9.194;2023-09-07T00:42:36;27.30;49.40
14901;DHT22;7542;49.078;9.194;2023-09-07T00:43:38;27.30;49.40
14901;DHT22;7542;49.078;9.194;2023-09-07T00:44:42;27.80;49.50
14901;DHT22;7542;49.078;9.194;2023-09-07T00:45:44;27.30;49.40
14901;DHT22;7542;49.078;9.194;2023-09-07T00:46:46;27.20;49.50
14901;DHT22;7542;49.078;9.194;2023-09-07T00:47:48;27.20;49.50
14901;DHT22;7542;49.078;9.194;2023-09-07T00:48:51;27.20;49.50
14901;DHT22;7542;49.078;9.194;2023-09-07T00:49:53;27.30;49.60
14901;DHT22;7542;49.078;9.194;2023-09-07T00:50:56;27.20;49.60
14901;DHT22;7542;49.078;9.194;2023-09-07T00:51:58;27.20;49.60
14901;DHT22;7542;49.078;9.194;2023-09-07T00:53:00;27.20;49.70
14901;DHT22;7542;49.078;9.194;2023-09-07T00:54:04;27.20;49.70
14901;DHT22;7542;49.078;9.194;2023-09-07T00:55:07;27.10;49.70
14901;DHT22;7542;49.078;9.194;2023-09-07T00:56:10;27.20;49.80
14901;DHT22;7542;49.078;9.194;2023-09-07T00:57:13;27.10;49.80
14901;DHT22;7542;49.078;9.194;2023-09-07T00:58:15;27.10;49.90
14901;DHT22;7542;49.078;9.194;2023-09-07T00:59:17;27.10;49.90
14901;DHT22;7542;49.078;9.194;2023-09-07T01:00:19;27.10;49.90
14901;DHT22;7542;49.078;9.194;2023-09-07T01:01:25;27.20;50.00
14901;DHT22;7542;49.078;9.194;2023-09-07T01:02:28;27.10;50.00
14901;DHT22;7542;49.078;9.194;2023-09-07T01:03:31;27.10;50.10
14901;DHT22;7542;49.078;9.194;2023-09-07T01:04:33;27.10;50.10
14901;DHT22;7542;49.078;9.194;2023-09-07T01:05:50;27.00;50.10
14901;DHT22;7542;49.078;9.194;2023-09-07T01:06:56;27.00;50.10
14901;DHT22;7542;49.078;9.194;2023-09-07T01:08:12;27.00;50.20
14901;DHT22;7542;49.078;9.194;2023-09-07T01:09:24;27.00;50.20
14901;DHT22;7542;49.078;9.194;2023-09-07T01:10:30;27.00;50.20
14901;DHT22;7542;49.078;9.194;2023-09-07T01:11:36;27.00;50.30
14901;DHT22;7542;49.078;9.194;2023-09-07T01:12:40;25.20;49.40
14901;DHT22;7542;49.078;9.194;2023-09-07T01:13:42;27.00;50.30
14901;DHT22;7542;49.078;9.194;2023-09-07T01:14:44;27.00;50.30
14901;DHT22;7542;49.078;9.194;2023-09-07T01:15:48;27.00;50.40
14901;DHT22;7542;49.078;9.194;2023-09-07T01:16:51;27.00;50.40
14901;DHT22;7542;49.078;9.194;2023-09-07T01:17:54;27.00;50.50
14901;DHT22;7542;49.078;9.194;2023-09-07T01:19:11;26.90;50.40
14901;DHT22;7542;49.078;9.194;2023-09-07T01:20:14;27.00;50.80
14901;DHT22;7542;49.078;9.194;2023-09-07T01:21:19;27.00;50.80
14901;DHT22;7542;49.078;9.194;2023-09-07T01:22:21;27.00;50.70
14901;DHT22;7542;49.078;9.194;2023-09-07T01:23:26;27.00;50.60
14901;DHT22;7542;49.078;9.194;2023-09-07T01:24:29;27.00;50.60
14901;DHT22;7542;49.078;9.194;2023-09-07T01:25:32;27.00;50.60
14901;DHT22;7542;49.078;9.194;2023-09-07T01:26:38;27.00;50.60
14901;DHT22;7542;49.078;9.194;2023-09-07T01:27:40;27.00;50.50
14901;DHT22;7542;49.078;9.194;2023-09-07T01:28:42;27.00;50.50
14901;DHT22;7542;49.078;9.194;2023-09-07T01:29:45;27.00;50.50
14901;DHT22;7542;49.078;9.194;2023-09-07T01:30:46;27.00;50.50
14901;DHT22;7542;49.078;9.194;2023-09-07T01:31:48;27.00;50.40
14901;DHT22;7542;49.078;9.194;2023-09-07T01:32:50;27.00;50.40
14901;DHT22;7542;49.078;9.194;2023-09-07T01:33:52;26.90;49.90
14901;DHT22;7542;49.078;9.194;2023-09-07T01:34:57;27.00;50.50
14901;DHT22;7542;49.078;9.194;2023-09-07T01:36:00;27.00;50.50
14901;DHT22;7542;49.078;9.194;2023-09-07T01:37:02;27.00;50.50
14901;DHT22;7542;49.078;9.194;2023-09-07T01:38:04;26.90;50.00
14901;DHT22;7542;49.078;9.194;2023-09-07T01:39:07;27.00;50.50
14901;DHT22;7542;49.078;9.194;2023-09-07T01:40:10;27.00;50.50
14901;DHT22;7542;49.078;9.194;2023-09-07T01:41:12;22.70;48.60
14901;DHT22;7542;49.078;9.194;2023-09-07T01:42:14;27.00;50.50
14901;DHT22;7542;49.078;9.194;2023-09-07T01:43:16;26.90;49.90
14901;DHT22;7542;49.078;9.194;2023-09-07T01:44:18;26.90;50.00
14901;DHT22;7542;49.078;9.194;2023-09-07T01:45:20;26.90;50.00
14901;DHT22;7542;49.078;9.194;2023-09-07T01:46:23;26.90;50.00
14901;DHT22;7542;49.078;9.194;2023-09-07T01:47:25;26.90;50.00
14901;DHT22;7542;49.078;9.194;2023-09-07T01:48:27;26.90;50.00
14901;DHT22;7542;49.078;9.194;2023-09-07T01:49:30;26.90;49.90
14901;DHT22;7542;49.078;9.194;2023-09-07T01:50:32;26.90;50.00
14901;DHT22;7542;49.078;9.194;2023-09-07T01:51:34;26.90;50.00
14901;DHT22;7542;49.078;9.194;2023-09-07T01:52:37;26.90;50.00
14901;DHT22;7542;49.078;9.194;2023-09-07T01:53:38;26.90;50.00
14901;DHT22;7542;49.078;9.194;2023-09-07T01:54:40;26.90;50.00
14901;DHT22;7542;49.078;9.194;2023-09-07T01:55:42;26.90;50.00
14901;DHT22;7542;49.078;9.194;2023-09-07T01:56:44;26.90;50.00
14901;DHT22;7542;49.078;9.194;2023-09-07T01:57:46;26.90;50.00
14901;DHT22;7542;49.078;9.194;2023-09-07T01:58:48;26.80;50.00
14901;DHT22;7542;49.078;9.194;2023-09-07T01:59:50;26.90;50.00
14901;DHT22;7542;49.078;9.194;2023-09-07T02:00:57;26.90;50.00
14901;DHT22;7542;49.078;9.194;2023-09-07T02:01:59;26.80;50.00
14901;DHT22;7542;49.078;9.194;2023-09-07T02:03:01;26.90;50.00
14901;DHT22;7542;49.078;9.194;2023-09-07T02:04:04;26.80;50.00
14901;DHT22;7542;49.078;9.194;2023-09-07T02:05:06;26.90;50.00
14901;DHT22;7542;49.078;9.194;2023-09-07T02:06:09;26.80;50.00
14901;DHT22;7542;49.078;9.194;2023-09-07T02:07:12;26.80;50.10
14901;DHT22;7542;49.078;9.194;2023-09-07T02:08:15;26.80;50.10
14901;DHT22;7542;49.078;9.194;2023-09-07T02:09:17;26.90;50.10
14901;DHT22;7542;49.078;9.194;2023-09-07T02:10:19;26.90;50.10
14901;DHT22;7542;49.078;9.194;2023-09-07T02:11:21;26.80;50.10
14901;DHT22;7542;49.078;9.194;2023-09-07T02:12:22;26.80;50.10
14901;DHT22;7542;49.078;9.194;2023-09-07T02:13:24;26.80;50.10
14901;DHT22;7542;49.078;9.194;2023-09-07T02:14:26;26.80;50.10
14901;DHT22;7542;49.078;9.194;2023-09-07T02:15:28;26.90;50.10
14901;DHT22;7542;49.078;9.194;2023-09-07T02:16:30;26.80;50.20
14901;DHT22;7542;49.078;9.194;2023-09-07T02:17:32;26.80;50.20
14901;DHT22;7542;49.078;9.194;2023-09-07T02:18:36;26.80;50.20
14901;DHT22;7542;49.078;9.194;2023-09-07T02:19:44;26.80;50.20
14901;DHT22;7542;49.078;9.194;2023-09-07T02:20:46;26.80;50.20
14901;DHT22;7542;49.078;9.194;2023-09-07T02:21:48;26.80;50.30
14901;DHT22;7542;49.078;9.194;2023-09-07T02:22:51;26.80;50.30
14901;DHT22;7542;49.078;9.194;2023-09-07T02:23:53;26.80;50.30
14901;DHT22;7542;49.078;9.194;2023-09-07T02:24:55;26.80;50.30
14901;DHT22;7542;49.078;9.194;2023-09-07T02:25:57;26.80;50.30
14901;DHT22;7542;49.078;9.194;2023-09-07T02:26:59;26.80;50.30
14901;DHT22;7542;49.078;9.194;2023-09-07T02:28:01;26.80;50.30
14901;DHT22;7542;49.078;9.194;2023-09-07T02:29:03;26.80;50.40
14901;DHT22;7542;49.078;9.194;2023-09-07T02:30:08;26.80;50.40
14901;DHT22;7542;49.078;9.194;2023-09-07T02:31:11;26.80;50.40
14901;DHT22;7542;49.078;9.194;2023-09-07T02:32:13;26.80;50.40
14901;DHT22;7542;49.078;9.194;2023-09-07T02:33:15;26.80;50.40
14901;DHT22;7542;49.078;9.194;2023-09-07T02:34:16;26.70;50.40
14901;DHT22;7542;49.078;9.194;2023-09-07T02:35:18;26.80;50.40
14901;DHT22;7542;49.078;9.194;2023-09-07T02:36:20;26.80;50.40
14901;DHT22;7542;49.078;9.194;2023-09-07T02:37:22;26.70;50.40
14901;DHT22;7542;49.078;9.194;2023-09-07T02:38:24;26.70;50.40
14901;DHT22;7542;49.078;9.194;2023-09-07T02:39:26;26.80;50.40
14901;DHT22;7542;49.078;9.194;2023-09-07T02:40:28;26.70;50.40
14901;DHT22;7542;49.078;9.194;2023-09-07T02:41:31;26.70;50.40
14901;DHT22;7542;49.078;9.194;2023-09-07T02:42:33;26.80;50.40
14901;DHT22;7542;49.078;9.194;2023-09-07T02:43:35;26.80;50.40
14901;DHT22;7542;49.078;9.194;2023-09-07T02:44:37;26.70;50.30
14901;DHT22;7542;49.078;9.194;2023-09-07T02:45:39;26.70;50.40
14901;DHT22;7542;49.078;9.194;2023-09-07T02:46:41;26.70;50.30
14901;DHT22;7542;49.078;9.194;2023-09-07T02:47:43;26.70;50.40
14901;DHT22;7542;49.078;9.194;2023-09-07T02:48:45;26.70;50.30
14901;DHT22;7542;49.078;9.194;2023-09-07T02:49:47;26.70;50.30
14901;DHT22;7542;49.078;9.194;2023-09-07T02:50:49;26.80;50.40
14901;DHT22;7542;49.078;9.194;2023-09-07T02:51:52;26.70;50.40
14901;DHT22;7542;49.078;9.194;2023-09-07T02:52:54;26.60;50.40
14901;DHT22;7542;49.078;9.194;2023-09-07T02:53:56;26.70;50.40
14901;DHT22;7542;49.078;9.194;2023-09-07T02:54:59;26.70;50.40
14901;DHT22;7542;49.078;9.194;2023-09-07T02:56:01;26.70;50.40
14901;DHT22;7542;49.078;9.194;2023-09-07T02:57:06;26.70;50.40
14901;DHT22;7542;49.078;9.194;2023-09-07T02:58:08;26.70;50.40
14901;DHT22;7542;49.078;9.194;2023-09-07T02:59:10;26.70;50.40
14901;DHT22;7542;49.078;9.194;2023-09-07T03:00:12;26.70;50.40
14901;DHT22;7542;49.078;9.194;2023-09-07T03:01:14;26.70;50.40
14901;DHT22;7542;49.078;9.194;2023-09-07T03:02:21;26.60;50.50
14901;DHT22;7542;49.078;9.194;2023-09-07T03:03:23;26.60;50.50
14901;DHT22;7542;49.078;9.194;2023-09-07T03:04:25;26.60;50.50
14901;DHT22;7542;49.078;9.194;2023-09-07T03:05:27;26.60;50.50
14901;DHT22;7542;49.078;9.194;2023-09-07T03:06:30;26.70;50.50
14901;DHT22;7542;49.078;9.194;2023-09-07T03:07:33;26.60;50.50
14901;DHT22;7542;49.078;9.194;2023-09-07T03:08:35;26.60;50.50
14901;DHT22;7542;49.078;9.194;2023-09-07T03:09:37;26.60;50.50
14901;DHT22;7542;49.078;9.194;2023-09-07T03:10:39;26.60;50.50
14901;DHT22;7542;49.078;9.194;2023-09-07T03:11:41;26.60;50.50
14901;DHT22;7542;49.078;9.194;2023-09-07T03:12:43;26.60;50.50
14901;DHT22;7542;49.078;9.194;2023-09-07T03:13:45;26.60;50.50
14901;DHT22;7542;49.078;9.194;2023-09-07T03:14:47;26.40;50.50
14901;DHT22;7542;49.078;9.194;2023-09-07T03:15:53;26.60;50.50
14901;DHT22;7542;49.078;9.194;2023-09-07T03:16:55;26.60;50.60
14901;DHT22;7542;49.078;9.194;2023-09-07T03:17:57;26.60;50.60
14901;DHT22;7542;49.078;9.194;2023-09-07T03:18:59;26.60;50.60
14901;DHT22;7542;49.078;9.194;2023-09-07T03:20:01;26.60;50.60
14901;DHT22;7542;49.078;9.194;2023-09-07T03:21:15;26.60;50.60
14901;DHT22;7542;49.078;9.194;2023-09-07T03:22:17;26.40;50.60
14901;DHT22;7542;49.078;9.194;2023-09-07T03:23:19;26.50;50.60
14901;DHT22;7542;49.078;9.194;2023-09-07T03:24:21;26.50;50.70
14901;DHT22;7542;49.078;9.194;2023-09-07T03:25:22;26.50;50.70
14901;DHT22;7542;49.078;9.194;2023-09-07T03:26:24;26.50;50.70
14901;DHT22;7542;49.078;9.194;2023-09-07T03:27:26;26.50;50.70
14901;DHT22;7542;49.078;9.194;2023-09-07T03:28:28;26.50;50.70
14901;DHT22;7542;49.078;9.194;2023-09-07T03:29:31;26.40;50.70
14901;DHT22;7542;49.078;9.194;2023-09-07T03:30:37;26.50;50.70
14901;DHT22;7542;49.078;9.194;2023-09-07T03:31:39;26.40;50.70
14901;DHT22;7542;49.078;9.194;2023-09-07T03:32:42;26.60;50.80
14901;DHT22;7542;49.078;9.194;2023-09-07T03:33:44;26.50;50.70
14901;DHT22;7542;49.078;9.194;2023-09-07T03:34:46;26.40;50.80
14901;DHT22;7542;49.078;9.194;2023-09-07T03:35:48;26.50;50.80
14901;DHT22;7542;49.078;9.194;2023-09-07T03:36:50;26.40;50.80
14901;DHT22;7542;49.078;9.194;2023-09-07T03:37:52;26.40;50.80
14901;DHT22;7542;49.078;9.194;2023-09-07T03:38:53;26.40;50.80
14901;DHT22;7542;49.078;9.194;2023-09-07T03:39:56;26.50;50.80
14901;DHT22;7542;49.078;9.194;2023-09-07T03:40:58;26.40;50.80
14901;DHT22;7542;49.078;9.194;2023-09-07T03:41:59;26.40;50.80
14901;DHT22;7542;49.078;9.194;2023-09-07T03:43:01;26.40;50.90
14901;DHT22;7542;49.078;9.194;2023-09-07T03:44:04;26.40;50.90
14901;DHT22;7542;49.078;9.194;2023-09-07T03:45:06;26.40;50.90
14901;DHT22;7542;49.078;9.194;2023-09-07T03:46:08;26.40;50.90
14901;DHT22;7542;49.078;9.194;2023-09-07T03:47:13;26.40;50.90
14901;DHT22;7542;49.078;9.194;2023-09-07T03:48:15;26.40;50.90
14901;DHT22;7542;49.078;9.194;2023-09-07T03:49:17;26.40;51.00
14901;DHT22;7542;49.078;9.194;2023-09-07T03:50:19;26.40;51.00
14901;DHT22;7542;49.078;9.194;2023-09-07T03:51:21;26.30;50.90
14901;DHT22;7542;49.078;9.194;2023-09-07T03:52:23;26.40;51.00
14901;DHT22;7542;49.078;9.194;2023-09-07T03:53:27;26.40;50.90
14901;DHT22;7542;49.078;9.194;2023-09-07T03:54:30;26.40;50.90
14901;DHT22;7542;49.078;9.194;2023-09-07T03:55:43;26.30;51.00
14901;DHT22;7542;49.078;9.194;2023-09-07T03:56:46;26.40;51.00
14901;DHT22;7542;49.078;9.194;2023-09-07T03:57:48;26.40;51.00
14901;DHT22;7542;49.078;9.194;2023-09-07T03:58:49;26.30;51.00
14901;DHT22;7542;49.078;9.194;2023-09-07T03:59:51;26.30;51.00
14901;DHT22;7542;49.078;9.194;2023-09-07T04:00:53;26.30;51.10
14901;DHT22;7542;49.078;9.194;2023-09-07T04:01:55;26.30;51.10
14901;DHT22;7542;49.078;9.194;2023-09-07T04:02:57;26.30;51.10
14901;DHT22;7542;49.078;9.194;2023-09-07T04:03:59;26.30;51.10
14901;DHT22;7542;49.078;9.194;2023-09-07T04:05:01;26.20;51.00
14901;DHT22;7542;49.078;9.194;2023-09-07T04:06:06;26.30;51.10
14901;DHT22;7542;49.078;9.194;2023-09-07T04:07:08;26.20;51.10
14901;DHT22;7542;49.078;9.194;2023-09-07T04:08:10;26.30;51.10
14901;DHT22;7542;49.078;9.194;2023-09-07T04:09:12;26.30;51.20
14901;DHT22;7542;49.078;9.194;2023-09-07T04:10:14;26.20;51.10
14901;DHT22;7542;49.078;9.194;2023-09-07T04:11:16;26.30;51.10
14901;DHT22;7542;49.078;9.194;2023-09-07T04:12:18;26.30;51.10
14901;DHT22;7542;49.078;9.194;2023-09-07T04:13:20;26.20;51.10
14901;DHT22;7542;49.078;9.194;2023-09-07T04:14:22;26.20;51.20
14901;DHT22;7542;49.078;9.194;2023-09-07T04:15:24;26.20;51.20
14901;DHT22;7542;49.078;9.194;2023-09-07T04:16:28;26.20;51.20
14901;DHT22;7542;49.078;9.194;2023-09-07T04:17:30;26.20;51.20
14901;DHT22;7542;49.078;9.194;2023-09-07T04:18:34;26.20;51.20
14901;DHT22;7542;49.078;9.194;2023-09-07T04:19:36;26.20;51.20
14901;DHT22;7542;49.078;9.194;2023-09-07T04:20:38;26.20;51.20
14901;DHT22;7542;49.078;9.194;2023-09-07T04:21:41;26.20;51.20
14901;DHT22;7542;49.078;9.194;2023-09-07T04:22:43;26.20;51.30
14901;DHT22;7542;49.078;9.194;2023-09-07T04:23:45;26.20;51.20
14901;DHT22;7542;49.078;9.194;2023-09-07T04:24:49;26.20;51.20
14901;DHT22;7542;49.078;9.194;2023-09-07T04:25:52;26.20;51.20
14901;DHT22;7542;49.078;9.194;2023-09-07T04:27:01;26.10;51.30
14901;DHT22;7542;49.078;9.194;2023-09-07T04:28:04;26.20;51.30
14901;DHT22;7542;49.078;9.194;2023-09-07T04:29:07;26.20;51.30
14901;DHT22;7542;49.078;9.194;2023-09-07T04:30:09;26.20;51.30
14901;DHT22;7542;49.078;9.194;2023-09-07T04:31:12;26.20;51.30
14901;DHT22;7542;49.078;9.194;2023-09-07T04:32:14;26.30;51.30
14901;DHT22;7542;49.078;9.194;2023-09-07T04:33:15;26.20;51.30
14901;DHT22;7542;49.078;9.194;2023-09-07T04:34:17;26.20;51.30
14901;DHT22;7542;49.078;9.194;2023-09-07T04:35:19;26.10;51.30
14901;DHT22;7542;49.078;9.194;2023-09-07T04:36:21;26.20;51.30
14901;DHT22;7542;49.078;9.194;2023-09-07T04:37:23;26.20;51.30
14901;DHT22;7542;49.078;9.194;2023-09-07T04:38:25;26.20;51.30
14901;DHT22;7542;49.078;9.194;2023-09-07T04:39:27;26.10;51.30
14901;DHT22;7542;49.078;9.194;2023-09-07T04:40:29;26.10;51.30
14901;DHT22;7542;49.078;9.194;2023-09-07T04:41:34;26.10;51.30
14901;DHT22;7542;49.078;9.194;2023-09-07T04:42:36;26.10;51.40
14901;DHT22;7542;49.078;9.194;2023-09-07T04:43:41;26.10;51.30
14901;DHT22;7542;49.078;9.194;2023-09-07T04:44:47;26.10;51.30
14901;DHT22;7542;49.078;9.194;2023-09-07T04:45:49;26.10;51.30
14901;DHT22;7542;49.078;9.194;2023-09-07T04:46:51;26.00;51.30
14901;DHT22;7542;49.078;9.194;2023-09-07T04:47:55;26.00;51.40
14901;DHT22;7542;49.078;9.194;2023-09-07T04:48:57;26.20;51.40
14901;DHT22;7542;49.078;9.194;2023-09-07T04:49:59;26.10;51.40
14901;DHT22;7542;49.078;9.194;2023-09-07T04:51:03;26.00;51.40
14901;DHT22;7542;49.078;9.194;2023-09-07T04:52:06;26.10;51.40
14901;DHT22;7542;49.078;9.194;2023-09-07T04:53:08;26.00;51.40
14901;DHT22;7542;49.078;9.194;2023-09-07T04:54:10;26.00;51.40
14901;DHT22;7542;49.078;9.194;2023-09-07T04:55:12;26.00;51.40
14901;DHT22;7542;49.078;9.194;2023-09-07T04:56:14;26.00;51.40
14901;DHT22;7542;49.078;9.194;2023-09-07T04:57:17;26.00;51.40
14901;DHT22;7542;49.078;9.194;2023-09-07T04:58:19;25.90;51.00
14901;DHT22;7542;49.078;9.194;2023-09-07T04:59:21;26.00;51.40
14901;DHT22;7542;49.078;9.194;2023-09-07T05:00:23;26.00;51.40
14901;DHT22;7542;49.078;9.194;2023-09-07T05:01:25;26.00;51.50
14901;DHT22;7542;49.078;9.194;2023-09-07T05:02:27;26.00;51.40
14901;DHT22;7542;49.078;9.194;2023-09-07T05:03:29;26.00;51.40
14901;DHT22;7542;49.078;9.194;2023-09-07T05:04:32;26.00;51.50
14901;DHT22;7542;49.078;9.194;2023-09-07T05:05:34;26.00;51.50
14901;DHT22;7542;49.078;9.194;2023-09-07T05:06:36;26.00;51.50
14901;DHT22;7542;49.078;9.194;2023-09-07T05:07:40;26.00;51.50
14901;DHT22;7542;49.078;9.194;2023-09-07T05:08:42;26.00;51.50
14901;DHT22;7542;49.078;9.194;2023-09-07T05:09:44;26.00;51.40
14901;DHT22;7542;49.078;9.194;2023-09-07T05:10:46;26.00;51.40
14901;DHT22;7542;49.078;9.194;2023-09-07T05:11:48;26.00;51.50
14901;DHT22;7542;49.078;9.194;2023-09-07T05:12:50;26.00;51.50
14901;DHT22;7542;49.078;9.194;2023-09-07T05:13:52;26.00;51.50
14901;DHT22;7542;49.078;9.194;2023-09-07T05:14:53;26.00;51.50
14901;DHT22;7542;49.078;9.194;2023-09-07T05:15:57;26.00;51.50
14901;DHT22;7542;49.078;9.194;2023-09-07T05:17:00;25.90;51.10
14901;DHT22;7542;49.078;9.194;2023-09-07T05:18:02;26.10;51.50
14901;DHT22;7542;49.078;9.194;2023-09-07T05:19:04;26.00;51.50
14901;DHT22;7542;49.078;9.194;2023-09-07T05:20:07;26.00;51.40
14901;DHT22;7542;49.078;9.194;2023-09-07T05:21:12;26.00;51.50
14901;DHT22;7542;49.078;9.194;2023-09-07T05:22:14;25.90;51.10
14901;DHT22;7542;49.078;9.194;2023-09-07T05:23:16;26.00;51.50
14901;DHT22;7542;49.078;9.194;2023-09-07T05:24:20;26.00;51.60
14901;DHT22;7542;49.078;9.194;2023-09-07T05:25:23;25.90;51.20
14901;DHT22;7542;49.078;9.194;2023-09-07T05:26:25;26.00;51.70
14901;DHT22;7542;49.078;9.194;2023-09-07T05:27:27;26.00;51.70
14901;DHT22;7542;49.078;9.194;2023-09-07T05:28:29;26.00;51.70
14901;DHT22;7542;49.078;9.194;2023-09-07T05:29:31;26.00;51.70
14901;DHT22;7542;49.078;9.194;2023-09-07T05:30:34;26.00;51.70
14901;DHT22;7542;49.078;9.194;2023-09-07T05:31:36;25.90;51.40
14901;DHT22;7542;49.078;9.194;2023-09-07T05:32:38;26.00;51.70
14901;DHT22;7542;49.078;9.194;2023-09-07T05:33:41;25.90;51.40
14901;DHT22;7542;49.078;9.194;2023-09-07T05:34:43;26.00;51.90
14901;DHT22;7542;49.078;9.194;2023-09-07T05:35:45;25.90;51.40
14901;DHT22;7542;49.078;9.194;2023-09-07T05:36:48;25.90;51.50
14901;DHT22;7542;49.078;9.194;2023-09-07T05:37:50;26.00;52.00
14901;DHT22;7542;49.078;9.194;2023-09-07T05:38:52;26.00;52.00
14901;DHT22;7542;49.078;9.194;2023-09-07T05:39:54;26.00;52.00
14901;DHT22;7542;49.078;9.194;2023-09-07T05:40:57;25.90;51.50
14901;DHT22;7542;49.078;9.194;2023-09-07T05:41:59;26.00;52.10
14901;DHT22;7542;49.078;9.194;2023-09-07T05:43:00;26.00;52.10
14901;DHT22;7542;49.078;9.194;2023-09-07T05:44:03;26.00;52.10
14901;DHT22;7542;49.078;9.194;2023-09-07T05:45:05;26.00;52.00
14901;DHT22;7542;49.078;9.194;2023-09-07T05:46:08;26.00;52.10
14901;DHT22;7542;49.078;9.194;2023-09-07T05:47:10;26.00;51.90
14901;DHT22;7542;49.078;9.194;2023-09-07T05:48:12;26.00;52.10
14901;DHT22;7542;49.078;9.194;2023-09-07T05:49:14;26.10;51.90
14901;DHT22;7542;49.078;9.194;2023-09-07T05:50:16;26.10;51.80
14901;DHT22;7542;49.078;9.194;2023-09-07T05:51:18;26.10;51.90
14901;DHT22;7542;49.078;9.194;2023-09-07T05:52:20;26.10;51.90
14901;DHT22;7542;49.078;9.194;2023-09-07T05:53:22;26.20;51.80
14901;DHT22;7542;49.078;9.194;2023-09-07T05:54:26;26.10;51.70
14901;DHT22;7542;49.078;9.194;2023-09-07T05:55:28;26.10;51.80
14901;DHT22;7542;49.078;9.194;2023-09-07T05:56:30;26.10;51.80
14901;DHT22;7542;49.078;9.194;2023-09-07T05:57:35;26.10;51.70
14901;DHT22;7542;49.078;9.194;2023-09-07T05:58:36;26.10;51.70
14901;DHT22;7542;49.078;9.194;2023-09-07T05:59:38;26.10;51.70
14901;DHT22;7542;49.078;9.194;2023-09-07T06:00:40;26.10;51.80
14901;DHT22;7542;49.078;9.194;2023-09-07T06:01:42;26.20;51.70
14901;DHT22;7542;49.078;9.194;2023-09-07T06:02:45;26.20;51.70
14901;DHT22;7542;49.078;9.194;2023-09-07T06:03:47;26.20;51.80
14901;DHT22;7542;49.078;9.194;2023-09-07T06:04:50;26.00;51.70
14901;DHT22;7542;49.078;9.194;2023-09-07T06:05:52;26.20;51.70
14901;DHT22;7542;49.078;9.194;2023-09-07T06:06:54;26.20;51.70
14901;DHT22;7542;49.078;9.194;2023-09-07T06:07:56;26.20;51.70
14901;DHT22;7542;49.078;9.194;2023-09-07T06:08:58;26.20;51.70
14901;DHT22;7542;49.078;9.194;2023-09-07T06:10:00;26.20;51.70
14901;DHT22;7542;49.078;9.194;2023-09-07T06:11:03;26.20;51.70
14901;DHT22;7542;49.078;9.194;2023-09-07T06:12:05;26.20;51.70
14901;DHT22;7542;49.078;9.194;2023-09-07T06:13:07;26.20;51.90
14901;DHT22;7542;49.078;9.194;2023-09-07T06:14:09;26.10;52.10
14901;DHT22;7542;49.078;9.194;2023-09-07T06:15:11;26.20;52.50
14901;DHT22;7542;49.078;9.194;2023-09-07T06:16:13;26.10;52.90
14901;DHT22;7542;49.078;9.194;2023-09-07T06:17:15;26.10;53.20
14901;DHT22;7542;49.078;9.194;2023-09-07T06:18:17;26.10;53.30
14901;DHT22;7542;49.078;9.194;2023-09-07T06:19:19;26.10;53.40
14901;DHT22;7542;49.078;9.194;2023-09-07T06:20:21;26.10;53.30
14901;DHT22;7542;49.078;9.194;2023-09-07T06:21:24;26.00;53.30
14901;DHT22;7542;49.078;9.194;2023-09-07T06:22:26;26.00;53.40
14901;DHT22;7542;49.078;9.194;2023-09-07T06:23:28;26.00;53.40
14901;DHT22;7542;49.078;9.194;2023-09-07T06:24:29;26.00;53.50
14901;DHT22;7542;49.078;9.194;2023-09-07T06:25:31;25.90;53.10
14901;DHT22;7542;49.078;9.194;2023-09-07T06:26:34;25.90;53.20
14901;DHT22;7542;49.078;9.194;2023-09-07T06:27:36;25.90;53.20
14901;DHT22;7542;49.078;9.194;2023-09-07T06:28:38;25.90;53.20
14901;DHT22;7542;49.078;9.194;2023-09-07T06:29:40;25.80;53.30
14901;DHT22;7542;49.078;9.194;2023-09-07T06:30:42;25.80;53.30
14901;DHT22;7542;49.078;9.194;2023-09-07T06:31:44;25.80;53.30
14901;DHT22;7542;49.078;9.194;2023-09-07T06:32:46;25.80;53.40
14901;DHT22;7542;49.078;9.194;2023-09-07T06:33:50;25.70;53.50
14901;DHT22;7542;49.078;9.194;2023-09-07T06:34:52;25.70;53.50
14901;DHT22;7542;49.078;9.194;2023-09-07T06:35:54;25.70;53.60
14901;DHT22;7542;49.078;9.194;2023-09-07T06:36:57;25.70;53.70
14901;DHT22;7542;49.078;9.194;2023-09-07T06:37:59;25.70;53.80
14901;DHT22;7542;49.078;9.194;2023-09-07T06:39:01;25.70;53.90
14901;DHT22;7542;49.078;9.194;2023-09-07T06:40:03;25.70;53.80
14901;DHT22;7542;49.078;9.194;2023-09-07T06:41:05;25.70;53.90
14901;DHT22;7542;49.078;9.194;2023-09-07T06:42:09;22.90;53.00